createdAt,value
2022-10-11T00:01:18.233Z,13.80
2022-10-11T00:03:44.809Z,7.95
2022-10-11T00:06:11.261Z,9.32
2022-10-11T00:08:37.760Z,9.10
2022-10-11T00:11:07.361Z,16.75
2022-10-11T00:13:34.339Z,8.57
2022-10-11T00:16:01.068Z,13.88
2022-10-11T00:18:27.629Z,13.02
2022-10-11T00:21:02.681Z,10.88
2022-10-11T00:23:29.116Z,14.95
2022-10-11T00:26:04.377Z,12.75
2022-10-11T00:28:31.902Z,12.38
2022-10-11T00:30:58.384Z,12.45
2022-10-11T00:33:25.341Z,11.02
2022-10-11T00:35:51.772Z,69.63
2022-10-11T00:38:18.300Z,11.25
2022-10-11T00:40:45.664Z,13.15
2022-10-11T00:43:21.467Z,12.57
2022-10-11T00:45:57.000Z,12.60
2022-10-11T00:48:29.353Z,13.70
2022-10-11T00:51:00.303Z,11.55
2022-10-11T00:53:30.361Z,14.23
2022-10-11T00:56:06.365Z,12.70
2022-10-11T00:58:36.227Z,11.13
2022-10-11T01:01:03.345Z,18.40
2022-10-11T01:03:31.760Z,10.52
2022-10-11T01:05:58.309Z,13.63
2022-10-11T01:08:25.616Z,21.42
2022-10-11T01:10:52.070Z,19.40
2022-10-11T01:13:43.356Z,24.45
2022-10-11T01:16:25.052Z,21.80
2022-10-11T01:19:04.756Z,16.67
2022-10-11T01:21:50.116Z,17.63
2022-10-11T01:24:40.736Z,18.08
2022-10-11T01:27:13.312Z,19.40
2022-10-11T01:30:02.179Z,23.23
2022-10-11T01:32:54.552Z,20.55
2022-10-11T01:35:31.012Z,21.45
2022-10-11T01:38:07.308Z,27.30
2022-10-11T01:40:39.540Z,21.88
2022-10-11T01:43:06.225Z,21.90
2022-10-11T01:45:34.609Z,19.75
2022-10-11T01:48:09.890Z,20.85
2022-10-11T01:50:44.900Z,28.58
2022-10-11T01:53:39.975Z,20.50
2022-10-11T01:56:24.724Z,26.15
2022-10-11T01:59:06.355Z,28.30
2022-10-11T02:01:42.028Z,22.30
2022-10-11T02:04:24.342Z,17.42
2022-10-11T02:07:01.258Z,23.95
2022-10-11T02:09:46.637Z,25.42
2022-10-11T02:12:19.544Z,27.52
2022-10-11T02:14:49.321Z,32.33
2022-10-11T02:17:22.595Z,32.65
2022-10-11T02:19:53.464Z,29.15
2022-10-11T02:22:42.923Z,32.55
2022-10-11T02:25:15.805Z,26.20
2022-10-11T02:27:45.560Z,28.83
2022-10-11T02:30:13.125Z,22.92
2022-10-11T02:32:42.572Z,31.02
2022-10-11T02:35:11.432Z,28.17
2022-10-11T02:37:56.132Z,24.95
2022-10-11T02:40:35.778Z,23.05
2022-10-11T02:43:07.833Z,25.33
2022-10-11T02:45:39.021Z,30.20
2022-10-11T02:48:07.993Z,34.83
2022-10-11T02:50:34.671Z,24.35
2022-10-11T02:53:01.129Z,19.75
2022-10-11T02:55:27.610Z,27.73
2022-10-11T02:57:54.064Z,21.65
2022-10-11T03:00:20.584Z,27.98
2022-10-11T03:02:47.090Z,28.48
2022-10-11T03:05:13.576Z,26.15
2022-10-11T03:07:40.029Z,28.83
2022-10-11T03:10:07.057Z,23.15
2022-10-11T03:12:33.512Z,24.50
2022-10-11T03:15:00.015Z,25.60
2022-10-11T03:17:42.562Z,28.88
2022-10-11T03:20:09.499Z,35.65
2022-10-11T03:22:36.654Z,30.33
2022-10-11T03:25:04.573Z,30.48
2022-10-11T03:27:33.736Z,33.47
2022-10-11T03:30:00.396Z,33.13
2022-10-11T03:32:27.236Z,39.28
2022-10-11T03:34:53.737Z,40.35
2022-10-11T03:37:20.227Z,39.33
2022-10-11T03:39:46.762Z,41.03
2022-10-11T03:42:14.531Z,40.25
2022-10-11T03:44:42.032Z,39.42
2022-10-11T03:47:08.928Z,44.38
2022-10-11T03:49:37.713Z,43.53
2022-10-11T03:52:07.782Z,44.20
2022-10-11T03:54:34.193Z,36.88
2022-10-11T03:57:00.610Z,44.92
2022-10-11T03:59:27.096Z,37.92
2022-10-11T04:01:53.557Z,43.22
2022-10-11T04:04:19.970Z,43.72
2022-10-11T04:06:46.400Z,38.20
2022-10-11T04:09:12.998Z,36.45
2022-10-11T04:11:39.426Z,41.53
2022-10-11T04:14:05.932Z,36.72
2022-10-11T04:16:32.416Z,33.45
2022-10-11T04:18:58.820Z,27.77
2022-10-11T04:21:25.202Z,33.00
2022-10-11T04:23:51.659Z,28.52
2022-10-11T04:26:18.076Z,36.42
2022-10-11T04:28:44.474Z,31.42
2022-10-11T04:31:11.116Z,32.88
2022-10-11T04:33:37.597Z,34.90
2022-10-11T04:36:04.692Z,40.80
2022-10-11T04:38:31.501Z,31.65
2022-10-11T04:41:06.955Z,34.03
2022-10-11T04:43:33.517Z,35.65
2022-10-11T04:45:59.940Z,35.35
2022-10-11T04:48:26.361Z,34.47
2022-10-11T04:50:52.811Z,33.35
2022-10-11T04:53:19.589Z,34.83
2022-10-11T04:56:00.920Z,34.03
2022-10-11T04:58:28.903Z,33.30
2022-10-11T05:00:55.389Z,32.17
2022-10-11T05:03:21.896Z,30.30
2022-10-11T05:05:48.582Z,38.72
2022-10-11T05:08:15.184Z,32.70
2022-10-11T05:10:41.659Z,33.30
2022-10-11T05:13:08.120Z,36.55
2022-10-11T05:15:34.620Z,33.15
2022-10-11T05:18:01.124Z,30.30
2022-10-11T05:20:27.792Z,33.33
2022-10-11T05:22:54.333Z,26.92
2022-10-11T05:25:20.761Z,33.55
2022-10-11T05:27:47.189Z,30.33
2022-10-11T05:30:13.597Z,39.55
2022-10-11T05:32:40.061Z,39.70
2022-10-11T05:35:07.021Z,32.15
2022-10-11T05:37:33.556Z,33.70
2022-10-11T05:39:59.956Z,34.70
2022-10-11T05:42:26.343Z,30.48
2022-10-11T05:44:52.732Z,35.13
2022-10-11T05:47:19.126Z,33.58
2022-10-11T05:49:45.521Z,41.40
2022-10-11T05:52:13.170Z,34.92
2022-10-11T05:54:39.601Z,35.33
2022-10-11T05:57:06.017Z,36.20
2022-10-11T05:59:32.487Z,36.38
2022-10-11T06:01:58.899Z,35.42
2022-10-11T06:04:25.365Z,34.42
2022-10-11T06:06:51.908Z,33.13
2022-10-11T06:09:18.361Z,30.70
2022-10-11T06:11:45.446Z,32.50
2022-10-11T06:14:11.985Z,35.00
2022-10-11T06:16:38.405Z,33.83
2022-10-11T06:19:04.993Z,32.65
2022-10-11T06:21:31.491Z,31.83
2022-10-11T06:24:01.280Z,33.60
2022-10-11T06:26:29.008Z,40.60
2022-10-11T06:29:16.290Z,34.95
2022-10-11T06:31:43.021Z,30.48
2022-10-11T06:34:09.481Z,38.22
2022-10-11T06:36:35.997Z,29.70
2022-10-11T06:39:02.511Z,28.92
2022-10-11T06:41:30.148Z,34.38
2022-10-11T06:43:57.103Z,31.40
2022-10-11T06:46:26.380Z,29.35
2022-10-11T06:48:54.111Z,28.00
2022-10-11T06:51:21.985Z,33.53
2022-10-11T06:53:50.335Z,28.75
2022-10-11T06:56:16.826Z,26.85
2022-10-11T06:58:43.227Z,25.35
2022-10-11T07:01:18.402Z,31.08
2022-10-11T07:03:45.841Z,27.73
2022-10-11T07:06:15.061Z,25.75
2022-10-11T07:08:41.623Z,27.83
2022-10-11T07:11:13.181Z,34.22
2022-10-11T07:16:10.186Z,24.00
2022-10-11T07:18:37.117Z,27.08
2022-10-11T07:21:12.091Z,26.13
2022-10-11T07:23:38.690Z,22.45
2022-10-11T07:26:07.479Z,21.02
2022-10-11T07:28:34.988Z,22.35
2022-10-11T07:31:11.183Z,24.20
2022-10-11T07:33:37.709Z,28.13
2022-10-11T07:36:05.623Z,21.45
2022-10-11T07:38:33.541Z,22.75
2022-10-11T07:41:05.382Z,21.90
2022-10-11T07:43:32.035Z,27.15
2022-10-11T07:46:03.956Z,22.90
2022-10-11T07:48:31.754Z,27.17
2022-10-11T07:51:16.317Z,28.83
2022-10-11T07:53:47.654Z,24.30
2022-10-11T07:56:19.349Z,20.05
2022-10-11T07:58:50.321Z,23.52
2022-10-11T08:01:17.412Z,25.45
2022-10-11T08:03:43.937Z,21.92
2022-10-11T08:06:13.925Z,28.25
2022-10-11T08:08:40.477Z,24.85
2022-10-11T08:11:07.104Z,27.33
2022-10-11T08:13:34.036Z,26.35
2022-10-11T08:16:00.533Z,27.60
2022-10-11T08:18:27.096Z,28.27
2022-10-11T08:20:53.571Z,25.98
2022-10-11T08:23:20.071Z,26.63
2022-10-11T08:25:47.637Z,30.73
2022-10-11T08:28:17.426Z,27.55
2022-10-11T08:30:52.360Z,25.40
2022-10-11T08:33:20.404Z,22.60
2022-10-11T08:35:47.076Z,23.92
2022-10-11T08:38:14.541Z,25.05
2022-10-11T08:41:21.832Z,25.08
2022-10-11T08:44:20.735Z,25.70
2022-10-11T08:46:56.892Z,32.03
2022-10-11T08:49:29.349Z,25.40
2022-10-11T08:52:04.340Z,22.63
2022-10-11T08:54:43.012Z,25.48
2022-10-11T08:57:14.616Z,24.52
2022-10-11T09:02:22.360Z,30.00
2022-10-11T09:04:53.405Z,23.85
2022-10-11T09:07:49.718Z,25.50
2022-10-11T09:10:34.640Z,31.67
2022-10-11T09:13:19.982Z,25.48
2022-10-11T09:16:08.947Z,24.15
2022-10-11T09:18:56.513Z,24.60
2022-10-11T09:21:40.212Z,25.27
2022-10-11T09:24:28.856Z,19.88
2022-10-11T09:27:00.947Z,20.50
2022-10-11T09:29:30.036Z,21.23
2022-10-11T09:31:57.782Z,19.90
2022-10-11T09:34:26.737Z,20.30
2022-10-11T09:36:56.010Z,22.00
2022-10-11T09:39:33.173Z,19.30
2022-10-11T09:42:08.386Z,22.42
2022-10-11T09:44:40.424Z,24.80
2022-10-11T09:47:14.303Z,18.92
2022-10-11T09:49:44.753Z,22.77
2022-10-11T09:52:16.578Z,22.00
2022-10-11T09:54:46.992Z,25.23
2022-10-11T09:57:28.496Z,28.88
2022-10-11T10:00:16.809Z,22.48
2022-10-11T10:02:46.802Z,22.27
2022-10-11T10:05:18.143Z,22.83
2022-10-11T10:08:05.249Z,21.77
2022-10-11T10:10:41.420Z,22.33
2022-10-11T10:13:22.022Z,20.65
2022-10-11T10:15:53.364Z,26.63
2022-10-11T10:18:29.621Z,21.50
2022-10-11T10:20:59.363Z,26.15
2022-10-11T10:23:32.813Z,22.08
2022-10-11T10:26:16.221Z,28.75
2022-10-11T10:29:04.057Z,22.45
2022-10-11T10:31:55.356Z,25.52
2022-10-11T10:34:30.945Z,18.17
2022-10-11T10:37:03.726Z,15.43
2022-10-11T10:39:41.673Z,25.02
2022-10-11T10:42:19.023Z,23.30
2022-10-11T10:44:53.864Z,23.05
2022-10-11T10:47:45.401Z,19.05
2022-10-11T10:50:26.644Z,18.08
2022-10-11T10:53:05.357Z,20.02
2022-10-11T10:55:40.452Z,17.83
2022-10-11T10:58:16.361Z,16.90
2022-10-11T11:01:23.773Z,21.52
2022-10-11T11:04:04.357Z,15.40
2022-10-11T11:06:42.407Z,22.10
2022-10-11T11:09:44.072Z,21.50
2022-10-11T11:12:41.218Z,18.30
2022-10-11T11:15:32.052Z,18.38
2022-10-11T11:20:59.617Z,22.88
2022-10-11T11:23:50.560Z,17.25
2022-10-11T11:26:23.213Z,18.63
2022-10-11T11:29:15.880Z,17.67
2022-10-11T11:32:03.565Z,21.65
2022-10-11T11:34:38.711Z,19.45
2022-10-11T11:37:31.709Z,19.45
2022-10-11T11:40:21.044Z,17.63
2022-10-11T11:43:01.254Z,20.17
2022-10-11T11:45:49.756Z,16.90
2022-10-11T11:48:20.233Z,19.33
2022-10-11T11:50:55.594Z,17.38
2022-10-11T11:53:32.662Z,18.20
2022-10-11T11:56:26.653Z,13.75
2022-10-11T11:59:07.973Z,18.17
2022-10-11T12:01:42.561Z,15.32
2022-10-11T12:04:35.568Z,15.57
2022-10-11T12:07:15.881Z,12.30
2022-10-11T12:09:46.553Z,13.93
2022-10-11T12:12:36.344Z,15.43
2022-10-11T12:15:09.046Z,14.50
2022-10-11T12:17:59.081Z,17.88
2022-10-11T12:20:31.541Z,24.52
2022-10-11T12:23:02.370Z,13.80
2022-10-11T12:25:28.763Z,18.08
2022-10-11T12:28:01.248Z,14.27
2022-10-11T12:30:50.687Z,14.93
2022-10-11T12:33:22.875Z,19.88
2022-10-11T12:35:55.493Z,14.57
2022-10-11T12:38:31.043Z,16.48
2022-10-11T12:41:09.806Z,15.10
2022-10-11T12:43:48.535Z,16.35
2022-10-11T12:46:31.030Z,14.43
2022-10-11T12:49:36.234Z,13.32
2022-10-11T12:52:17.764Z,16.90
2022-10-11T12:55:09.029Z,17.85
2022-10-11T12:58:13.303Z,16.60
2022-10-11T13:00:39.636Z,17.27
2022-10-11T13:03:41.497Z,11.75
2022-10-11T13:06:21.832Z,13.55
2022-10-11T13:09:05.215Z,18.50
2022-10-11T13:11:35.801Z,15.20
2022-10-11T13:14:09.928Z,14.15
2022-10-11T13:17:02.321Z,14.32
2022-10-11T13:19:30.663Z,13.27
2022-10-11T13:22:04.061Z,12.30
2022-10-11T13:24:39.237Z,12.05
2022-10-11T13:27:07.049Z,13.30
2022-10-11T13:29:39.877Z,15.45
2022-10-11T13:32:13.486Z,14.48
2022-10-11T13:34:41.651Z,20.20
2022-10-11T13:37:16.249Z,14.95
2022-10-11T13:39:42.747Z,13.25
2022-10-11T13:42:13.345Z,15.57
2022-10-11T13:44:41.553Z,17.48
2022-10-11T13:47:13.720Z,16.60
2022-10-11T13:49:46.125Z,13.45
2022-10-11T13:52:18.441Z,15.32
2022-10-11T13:54:54.369Z,15.90
2022-10-11T13:57:29.768Z,15.75
2022-10-11T13:59:56.430Z,17.13
2022-10-11T14:02:25.014Z,15.63
2022-10-11T14:04:51.544Z,17.23
2022-10-11T14:07:29.835Z,14.90
2022-10-11T14:09:56.477Z,14.20
2022-10-11T14:12:35.058Z,13.02
2022-10-11T14:15:04.231Z,14.10
2022-10-11T14:17:42.719Z,25.17
2022-10-11T14:20:16.636Z,22.27
2022-10-11T14:22:44.003Z,16.30
2022-10-11T14:25:10.593Z,14.13
2022-10-11T14:27:38.163Z,17.48
2022-10-11T14:32:57.798Z,14.63
2022-10-11T14:35:30.182Z,13.48
2022-10-11T14:37:56.623Z,14.95
2022-10-11T14:40:26.179Z,12.40
2022-10-11T14:42:53.546Z,13.55
2022-10-11T14:45:21.189Z,17.33
2022-10-11T14:47:48.726Z,15.05
2022-10-11T14:50:32.965Z,17.58
2022-10-11T14:53:00.000Z,13.65
2022-10-11T14:55:26.478Z,17.30
2022-10-11T14:57:53.004Z,14.63
2022-10-11T15:00:23.695Z,20.20
2022-10-11T15:02:52.669Z,18.80
2022-10-11T15:05:20.406Z,15.20
2022-10-11T15:07:47.454Z,17.38
2022-10-11T15:10:24.229Z,15.40
2022-10-11T15:12:52.638Z,18.85
2022-10-11T15:15:22.766Z,21.92
2022-10-11T15:17:55.633Z,20.80
2022-10-11T15:20:27.339Z,13.13
2022-10-11T15:22:55.022Z,13.60
2022-10-11T15:25:22.417Z,15.25
2022-10-11T15:27:49.563Z,15.40
2022-10-11T15:30:31.264Z,19.98
2022-10-11T15:35:26.281Z,18.40
2022-10-11T15:37:55.091Z,15.65
2022-10-11T15:40:35.343Z,17.17
2022-10-11T15:43:02.475Z,16.33
2022-10-11T15:45:29.824Z,16.23
2022-10-11T15:47:56.685Z,18.02
2022-10-11T15:50:37.305Z,18.42
2022-10-11T15:53:09.683Z,17.40
2022-10-11T15:55:39.472Z,17.60
2022-10-11T15:58:07.146Z,18.13
2022-10-11T16:00:33.581Z,15.45
2022-10-11T16:03:00.064Z,19.52
2022-10-11T16:05:27.625Z,19.38
2022-10-11T16:07:54.393Z,15.93
2022-10-11T16:10:21.560Z,13.93
2022-10-11T16:12:48.643Z,12.98
2022-10-11T16:15:15.292Z,12.50
2022-10-11T16:17:41.709Z,16.52
2022-10-11T16:20:08.589Z,13.63
2022-10-11T16:22:35.207Z,14.65
2022-10-11T16:25:03.451Z,16.55
2022-10-11T16:27:29.989Z,17.33
2022-10-11T16:29:56.560Z,17.08
2022-10-11T16:32:24.136Z,19.60
2022-10-11T16:34:50.543Z,17.00
2022-10-11T16:37:17.108Z,15.23
2022-10-11T16:39:43.841Z,18.10
2022-10-11T16:42:10.518Z,15.50
2022-10-11T16:44:38.542Z,14.23
2022-10-11T16:47:05.957Z,18.90
2022-10-11T16:49:32.841Z,16.10
2022-10-11T16:52:02.175Z,19.00
2022-10-11T16:54:30.176Z,17.95
2022-10-11T16:56:57.809Z,17.85
2022-10-11T16:59:24.662Z,21.17
2022-10-11T17:01:51.393Z,20.42
2022-10-11T17:04:18.200Z,18.58
2022-10-11T17:06:44.833Z,19.38
2022-10-11T17:09:11.438Z,19.75
2022-10-11T17:11:38.081Z,18.83
2022-10-11T17:14:05.951Z,17.77
2022-10-11T17:16:32.834Z,17.30
2022-10-11T17:18:59.590Z,17.55
2022-10-11T17:21:25.989Z,18.23
2022-10-11T17:23:52.616Z,16.55
2022-10-11T17:26:23.143Z,17.90
2022-10-11T17:28:49.655Z,17.50
2022-10-11T17:31:16.937Z,19.83
2022-10-11T17:33:43.445Z,25.42
2022-10-11T17:36:24.835Z,16.95
2022-10-11T17:38:52.051Z,20.20
2022-10-11T17:41:19.317Z,20.00
2022-10-11T17:43:46.431Z,20.02
2022-10-11T17:46:15.316Z,18.75
2022-10-11T17:48:42.217Z,14.20
2022-10-11T17:51:10.546Z,19.70
2022-10-11T17:53:37.511Z,18.27
2022-10-11T17:56:09.396Z,15.82
2022-10-11T17:58:36.045Z,16.13
2022-10-11T18:01:07.907Z,20.92
2022-10-11T18:03:34.616Z,17.23
2022-10-11T18:06:08.881Z,20.33
2022-10-11T18:08:40.378Z,17.23
2022-10-11T18:11:16.108Z,18.85
2022-10-11T18:13:46.101Z,19.60
2022-10-11T18:16:14.017Z,21.75
2022-10-11T18:18:40.649Z,17.85
2022-10-11T18:21:07.155Z,19.80
2022-10-11T18:23:35.356Z,21.13
2022-10-11T18:26:09.487Z,18.67
2022-10-11T18:28:36.209Z,19.15
2022-10-11T18:31:12.377Z,17.33
2022-10-11T18:33:39.712Z,21.92
2022-10-11T18:36:07.965Z,23.17
2022-10-11T18:38:35.972Z,19.50
2022-10-11T18:41:11.178Z,26.77
2022-10-11T18:43:37.682Z,33.10
2022-10-11T18:46:06.072Z,20.73
2022-10-11T18:48:33.165Z,31.35
2022-10-11T18:51:08.129Z,22.25
2022-10-11T18:53:35.224Z,20.70
2022-10-11T18:56:03.557Z,19.65
2022-10-11T18:58:30.797Z,19.92
2022-10-11T19:01:07.852Z,26.95
2022-10-11T19:03:35.389Z,18.05
2022-10-11T19:06:04.655Z,25.42
2022-10-11T19:08:31.552Z,23.08
2022-10-11T19:11:05.656Z,28.38
2022-10-11T19:13:32.277Z,28.80
2022-10-11T19:16:11.605Z,23.52
2022-10-11T19:18:43.178Z,19.75
2022-10-11T19:21:12.669Z,20.48
2022-10-11T19:23:42.067Z,25.75
2022-10-11T19:26:13.533Z,27.45
2022-10-11T19:28:40.170Z,26.63
2022-10-11T19:31:09.710Z,22.23
2022-10-11T19:33:36.720Z,20.60
2022-10-11T19:36:05.625Z,21.33
2022-10-11T19:38:34.619Z,21.35
2022-10-11T19:41:02.394Z,22.88
2022-10-11T19:43:28.898Z,26.20
2022-10-11T19:46:06.144Z,23.33
2022-10-11T19:48:35.437Z,23.35
2022-10-11T19:51:07.107Z,26.52
2022-10-11T19:56:05.547Z,21.20
2022-10-11T19:58:32.095Z,22.55
2022-10-11T20:01:17.656Z,24.15
2022-10-11T20:03:46.878Z,20.67
2022-10-11T20:06:13.846Z,22.08
2022-10-11T20:08:40.466Z,27.27
2022-10-11T20:11:08.899Z,26.98
2022-10-11T20:13:36.469Z,23.92
2022-10-11T20:16:11.469Z,25.83
2022-10-11T20:18:38.796Z,27.02
2022-10-11T20:21:08.442Z,20.60
2022-10-11T20:23:35.461Z,21.92
2022-10-11T20:26:04.077Z,20.70
2022-10-11T20:28:31.859Z,23.42
2022-10-11T20:31:00.053Z,20.98
2022-10-11T20:33:29.372Z,19.92
2022-10-11T20:36:06.796Z,27.55
2022-10-11T20:38:35.385Z,24.13
2022-10-11T20:41:10.480Z,24.02
2022-10-11T20:43:37.089Z,21.92
2022-10-11T20:46:13.073Z,18.45
2022-10-11T20:48:40.659Z,21.98
2022-10-11T20:51:10.751Z,23.42
2022-10-11T20:53:38.435Z,22.20
2022-10-11T20:56:08.073Z,18.08
2022-10-11T20:58:34.489Z,28.75
2022-10-11T21:01:06.985Z,23.48
2022-10-11T21:03:33.429Z,23.65
2022-10-11T21:05:59.921Z,24.13
2022-10-11T21:08:26.777Z,19.05
2022-10-11T21:10:54.656Z,28.23
2022-10-11T21:13:22.257Z,23.10
2022-10-11T21:15:48.696Z,21.63
2022-10-11T21:18:15.552Z,25.38
2022-10-11T21:20:43.089Z,20.08
2022-10-11T21:23:11.100Z,24.73
2022-10-11T21:25:37.802Z,27.48
2022-10-11T21:28:04.717Z,25.02
2022-10-11T21:30:32.151Z,23.92
2022-10-11T21:32:58.775Z,24.25
2022-10-11T21:35:29.872Z,20.40
2022-10-11T21:37:57.849Z,20.70
2022-10-11T21:40:24.716Z,26.27
2022-10-11T21:42:51.157Z,22.38
2022-10-11T21:45:17.564Z,28.95
2022-10-11T21:47:44.277Z,23.17
2022-10-11T21:50:10.772Z,20.52
2022-10-11T21:52:37.407Z,20.58
2022-10-11T21:55:04.340Z,22.45
2022-10-11T21:57:30.757Z,26.92
2022-10-11T21:59:57.201Z,17.35
2022-10-11T22:02:23.658Z,23.63
2022-10-11T22:04:50.035Z,20.92
2022-10-11T22:07:16.461Z,21.63
2022-10-11T22:09:42.929Z,19.88
2022-10-11T22:12:09.411Z,23.83
2022-10-11T22:14:35.877Z,24.45
2022-10-11T22:17:02.372Z,20.83
2022-10-11T22:19:28.780Z,23.35
2022-10-11T22:21:55.157Z,21.48
2022-10-11T22:24:21.576Z,24.13
2022-10-11T22:26:48.012Z,28.90
2022-10-11T22:29:14.521Z,21.55
2022-10-11T22:31:41.349Z,22.45
2022-10-11T22:34:07.964Z,24.60
2022-10-11T22:36:34.426Z,32.10
2022-10-11T22:39:00.940Z,24.58
2022-10-11T22:41:27.441Z,23.98
2022-10-11T22:43:53.860Z,26.50
2022-10-11T22:46:20.266Z,29.30
2022-10-11T22:48:46.694Z,27.00
2022-10-11T22:51:13.547Z,24.67
2022-10-11T22:53:39.992Z,24.85
2022-10-11T22:56:06.692Z,25.10
2022-10-11T22:58:33.090Z,31.73
2022-10-11T23:01:06.716Z,25.80
2022-10-11T23:03:33.168Z,24.02
2022-10-11T23:05:59.665Z,22.83
2022-10-11T23:08:26.133Z,20.83
2022-10-11T23:10:52.874Z,24.73
2022-10-11T23:13:19.427Z,22.85
2022-10-11T23:15:45.961Z,22.75
2022-10-11T23:18:12.544Z,27.65
2022-10-11T23:20:39.513Z,29.13
2022-10-11T23:23:06.799Z,22.42
2022-10-11T23:25:33.249Z,20.40
2022-10-11T23:28:01.084Z,23.50
2022-10-11T23:30:29.053Z,26.70
2022-10-11T23:32:55.582Z,20.85
2022-10-11T23:35:22.152Z,24.85
2022-10-11T23:37:48.537Z,22.65
2022-10-11T23:40:15.320Z,18.98
2022-10-11T23:42:41.763Z,23.13
2022-10-11T23:45:08.816Z,25.15
2022-10-11T23:47:35.528Z,22.08
2022-10-11T23:50:02.209Z,25.67
2022-10-11T23:52:28.603Z,25.60
2022-10-11T23:54:56.118Z,22.02
2022-10-11T23:57:22.520Z,22.35
2022-10-11T23:59:48.949Z,26.75
